Airfield :
LOGIN :

Register | Disclaimer

   EN    FR    IT 

 










Legend :    VFR   Marginal VFR   IFR   Intensive IFR   Very Intensive IFR
Visi :
Ceiling :
>= 8 km
>= 3000ft
5 to 8 km
1000 to 3000 ft
1500m to 5 km
500 to 1000 ft
800 to 1500m
200 to 500 ft
< 800m
< 200 ft
Symbols :   Thunderstorms  Fog  Heavy snow  Heavy precipitations  Wind > 20 kt
SIGMETs :     Misc.  Thunderstorms  Icing  Turbulence  Mountain Waves  Volcanic Ashes







- Airport Elevation : 1460 ft


LSMA - Alpnach

CURRENT METAR :
  • 241520Z AUTO 06007KT 9999NDV NCD 18/04 Q1021 RMK

EXPIRED METARs :
  • 241450Z AUTO 06008KT 9999NDV NCD 18/05 Q1021 RMK
  • 241420Z AUTO 07008KT 040V100 9999NDV NCD 17/05 Q1021 RMK
  • 241350Z AUTO 06007KT 020V090 9999NDV NCD 17/06 Q1022 RMK
  • 241320Z AUTO 04007KT 350V080 9999NDV NCD 17/06 Q1022 RMK
  • 241250Z AUTO 05008KT 9999NDV NCD 16/05 Q1022 RMK
  • 241220Z AUTO 04010KT 9999NDV NCD 15/05 Q1023 RMK

Expired Forecast.
No reported NOTAMs for that airfield.



MET'MAP, your aeronautical weather chart ! - Copyright ORBIFLY December 2007 - Disclaimer

ORBIFLY MET'MAP TEAM :

Programming & Development : Alexandra Zaïnal
Concept & Development : Baudouin d'Aumeries
Co-Development & Prog : Marc-Olivier Méhu
Technical & hardware support : Manuel Goepfert

Contact : metmap@orbifly.com




SOURCES & CREDITS :

   NOAA